sensor_id;sensor_type;location;lat;lon;timestamp;P1;durP1;ratioP1;P2;durP2;ratioP2
75071;SDS011;63651;55.728;38.022;2023-12-07T00:01:44;10.68;;;7.20;;
75071;SDS011;63651;55.728;38.022;2023-12-07T00:06:45;11.32;;;7.35;;
75071;SDS011;63651;55.728;38.022;2023-12-07T00:11:46;10.70;;;7.30;;
75071;SDS011;63651;55.728;38.022;2023-12-07T00:16:47;10.95;;;7.30;;
75071;SDS011;63651;55.728;38.022;2023-12-07T00:21:48;12.52;;;7.85;;
75071;SDS011;63651;55.728;38.022;2023-12-07T00:26:49;14.52;;;7.88;;
75071;SDS011;63651;55.728;38.022;2023-12-07T00:31:50;11.90;;;8.55;;
75071;SDS011;63651;55.728;38.022;2023-12-07T00:36:52;11.27;;;7.38;;
75071;SDS011;63651;55.728;38.022;2023-12-07T00:41:53;12.82;;;7.97;;
75071;SDS011;63651;55.728;38.022;2023-12-07T00:46:54;10.77;;;7.80;;
75071;SDS011;63651;55.728;38.022;2023-12-07T00:51:55;10.45;;;7.28;;
75071;SDS011;63651;55.728;38.022;2023-12-07T00:56:56;11.00;;;7.40;;
75071;SDS011;63651;55.728;38.022;2023-12-07T01:01:58;11.25;;;7.03;;
75071;SDS011;63651;55.728;38.022;2023-12-07T01:07:00;13.48;;;7.45;;
75071;SDS011;63651;55.728;38.022;2023-12-07T01:12:01;11.85;;;7.25;;
75071;SDS011;63651;55.728;38.022;2023-12-07T01:17:02;11.13;;;7.22;;
75071;SDS011;63651;55.728;38.022;2023-12-07T01:22:03;12.70;;;6.45;;
75071;SDS011;63651;55.728;38.022;2023-12-07T01:27:04;10.48;;;6.88;;
75071;SDS011;63651;55.728;38.022;2023-12-07T01:32:05;11.38;;;6.63;;
75071;SDS011;63651;55.728;38.022;2023-12-07T01:37:07;9.95;;;6.60;;
75071;SDS011;63651;55.728;38.022;2023-12-07T01:42:08;10.63;;;6.25;;
75071;SDS011;63651;55.728;38.022;2023-12-07T01:47:09;12.77;;;7.57;;
75071;SDS011;63651;55.728;38.022;2023-12-07T01:52:11;9.73;;;5.95;;
75071;SDS011;63651;55.728;38.022;2023-12-07T01:57:12;10.68;;;6.63;;
75071;SDS011;63651;55.728;38.022;2023-12-07T02:02:14;10.50;;;6.22;;
75071;SDS011;63651;55.728;38.022;2023-12-07T02:07:15;9.18;;;6.10;;
75071;SDS011;63651;55.728;38.022;2023-12-07T02:12:16;11.38;;;6.60;;
75071;SDS011;63651;55.728;38.022;2023-12-07T02:22:43;10.30;;;6.38;;
75071;SDS011;63651;55.728;38.022;2023-12-07T02:27:49;9.65;;;6.30;;
75071;SDS011;63651;55.728;38.022;2023-12-07T02:32:50;9.25;;;6.47;;
75071;SDS011;63651;55.728;38.022;2023-12-07T02:37:51;10.32;;;5.55;;
75071;SDS011;63651;55.728;38.022;2023-12-07T02:42:54;10.80;;;6.03;;
75071;SDS011;63651;55.728;38.022;2023-12-07T02:47:57;9.20;;;5.95;;
75071;SDS011;63651;55.728;38.022;2023-12-07T02:52:58;9.13;;;5.38;;
75071;SDS011;63651;55.728;38.022;2023-12-07T02:57:59;8.65;;;5.57;;
75071;SDS011;63651;55.728;38.022;2023-12-07T03:03:00;9.35;;;5.55;;
75071;SDS011;63651;55.728;38.022;2023-12-07T03:08:02;8.15;;;4.95;;
75071;SDS011;63651;55.728;38.022;2023-12-07T03:13:03;7.03;;;5.05;;
75071;SDS011;63651;55.728;38.022;2023-12-07T03:18:04;7.80;;;4.53;;
75071;SDS011;63651;55.728;38.022;2023-12-07T03:23:05;8.05;;;5.00;;
75071;SDS011;63651;55.728;38.022;2023-12-07T03:28:07;11.00;;;5.38;;
75071;SDS011;63651;55.728;38.022;2023-12-07T03:33:08;8.13;;;5.10;;
75071;SDS011;63651;55.728;38.022;2023-12-07T03:38:09;7.35;;;5.20;;
75071;SDS011;63651;55.728;38.022;2023-12-07T03:43:10;6.80;;;4.57;;
75071;SDS011;63651;55.728;38.022;2023-12-07T03:48:11;7.18;;;4.95;;
75071;SDS011;63651;55.728;38.022;2023-12-07T03:53:12;7.30;;;4.65;;
75071;SDS011;63651;55.728;38.022;2023-12-07T03:58:13;9.23;;;4.88;;
75071;SDS011;63651;55.728;38.022;2023-12-07T04:03:14;6.88;;;4.95;;
75071;SDS011;63651;55.728;38.022;2023-12-07T04:08:15;8.93;;;4.72;;
75071;SDS011;63651;55.728;38.022;2023-12-07T04:13:16;7.30;;;5.03;;
75071;SDS011;63651;55.728;38.022;2023-12-07T04:18:19;8.25;;;5.03;;
75071;SDS011;63651;55.728;38.022;2023-12-07T04:23:20;7.30;;;4.78;;
75071;SDS011;63651;55.728;38.022;2023-12-07T04:28:21;10.15;;;5.55;;
75071;SDS011;63651;55.728;38.022;2023-12-07T04:33:22;9.70;;;5.63;;
75071;SDS011;63651;55.728;38.022;2023-12-07T04:38:23;9.35;;;5.05;;
75071;SDS011;63651;55.728;38.022;2023-12-07T04:43:24;9.45;;;5.35;;
75071;SDS011;63651;55.728;38.022;2023-12-07T04:48:25;7.40;;;5.03;;
75071;SDS011;63651;55.728;38.022;2023-12-07T04:53:26;8.95;;;5.40;;
75071;SDS011;63651;55.728;38.022;2023-12-07T04:58:27;8.52;;;5.07;;
75071;SDS011;63651;55.728;38.022;2023-12-07T05:03:28;8.18;;;4.80;;
75071;SDS011;63651;55.728;38.022;2023-12-07T05:08:29;7.93;;;4.45;;
75071;SDS011;63651;55.728;38.022;2023-12-07T05:13:30;10.77;;;5.20;;
75071;SDS011;63651;55.728;38.022;2023-12-07T05:18:34;9.05;;;4.78;;
75071;SDS011;63651;55.728;38.022;2023-12-07T05:23:35;6.60;;;4.68;;
75071;SDS011;63651;55.728;38.022;2023-12-07T05:28:36;8.15;;;4.40;;
75071;SDS011;63651;55.728;38.022;2023-12-07T05:33:37;10.32;;;4.60;;
75071;SDS011;63651;55.728;38.022;2023-12-07T05:38:38;8.02;;;4.82;;
75071;SDS011;63651;55.728;38.022;2023-12-07T05:43:42;8.30;;;5.18;;
75071;SDS011;63651;55.728;38.022;2023-12-07T05:48:44;6.53;;;4.32;;
75071;SDS011;63651;55.728;38.022;2023-12-07T05:53:45;7.50;;;4.95;;
75071;SDS011;63651;55.728;38.022;2023-12-07T05:58:46;6.47;;;4.05;;
75071;SDS011;63651;55.728;38.022;2023-12-07T06:03:51;7.63;;;4.97;;
75071;SDS011;63651;55.728;38.022;2023-12-07T06:08:52;8.05;;;5.18;;
75071;SDS011;63651;55.728;38.022;2023-12-07T06:13:53;7.07;;;4.07;;
75071;SDS011;63651;55.728;38.022;2023-12-07T06:18:55;7.15;;;4.90;;
75071;SDS011;63651;55.728;38.022;2023-12-07T06:23:56;8.27;;;4.95;;
75071;SDS011;63651;55.728;38.022;2023-12-07T06:28:59;6.82;;;4.60;;
75071;SDS011;63651;55.728;38.022;2023-12-07T06:34:00;7.78;;;5.18;;
75071;SDS011;63651;55.728;38.022;2023-12-07T06:39:02;9.23;;;5.50;;
75071;SDS011;63651;55.728;38.022;2023-12-07T06:44:06;11.77;;;7.00;;
75071;SDS011;63651;55.728;38.022;2023-12-07T06:49:07;18.17;;;9.23;;
75071;SDS011;63651;55.728;38.022;2023-12-07T06:54:08;19.98;;;10.48;;
75071;SDS011;63651;55.728;38.022;2023-12-07T06:59:09;20.98;;;10.93;;
75071;SDS011;63651;55.728;38.022;2023-12-07T07:04:10;24.20;;;12.60;;
75071;SDS011;63651;55.728;38.022;2023-12-07T07:09:12;21.23;;;13.10;;
75071;SDS011;63651;55.728;38.022;2023-12-07T07:14:13;17.70;;;12.13;;
75071;SDS011;63651;55.728;38.022;2023-12-07T07:19:14;19.52;;;13.10;;
75071;SDS011;63651;55.728;38.022;2023-12-07T07:24:17;15.27;;;10.27;;
75071;SDS011;63651;55.728;38.022;2023-12-07T07:29:18;14.15;;;9.07;;
75071;SDS011;63651;55.728;38.022;2023-12-07T07:34:20;13.30;;;9.07;;
75071;SDS011;63651;55.728;38.022;2023-12-07T07:39:21;12.45;;;8.43;;
75071;SDS011;63651;55.728;38.022;2023-12-07T07:44:22;16.83;;;8.48;;
75071;SDS011;63651;55.728;38.022;2023-12-07T07:49:23;11.40;;;7.88;;
75071;SDS011;63651;55.728;38.022;2023-12-07T07:54:24;12.52;;;7.80;;
75071;SDS011;63651;55.728;38.022;2023-12-07T07:59:26;16.73;;;8.52;;
75071;SDS011;63651;55.728;38.022;2023-12-07T08:04:28;14.15;;;7.90;;
75071;SDS011;63651;55.728;38.022;2023-12-07T08:09:29;13.50;;;8.85;;
75071;SDS011;63651;55.728;38.022;2023-12-07T08:14:30;12.40;;;7.13;;
75071;SDS011;63651;55.728;38.022;2023-12-07T08:19:31;10.45;;;7.00;;
75071;SDS011;63651;55.728;38.022;2023-12-07T08:24:33;10.70;;;6.75;;
75071;SDS011;63651;55.728;38.022;2023-12-07T08:29:34;11.40;;;6.18;;
75071;SDS011;63651;55.728;38.022;2023-12-07T08:34:37;10.27;;;6.30;;
75071;SDS011;63651;55.728;38.022;2023-12-07T08:39:38;9.43;;;6.28;;
75071;SDS011;63651;55.728;38.022;2023-12-07T08:44:39;10.38;;;5.75;;
75071;SDS011;63651;55.728;38.022;2023-12-07T08:49:40;9.43;;;6.35;;
75071;SDS011;63651;55.728;38.022;2023-12-07T08:54:41;12.38;;;6.63;;
75071;SDS011;63651;55.728;38.022;2023-12-07T08:59:42;9.45;;;6.07;;
75071;SDS011;63651;55.728;38.022;2023-12-07T09:04:43;10.50;;;5.97;;
75071;SDS011;63651;55.728;38.022;2023-12-07T09:09:44;9.88;;;6.28;;
75071;SDS011;63651;55.728;38.022;2023-12-07T09:14:48;10.88;;;6.40;;
75071;SDS011;63651;55.728;38.022;2023-12-07T09:19:49;9.88;;;6.35;;
75071;SDS011;63651;55.728;38.022;2023-12-07T09:24:50;9.27;;;5.85;;
75071;SDS011;63651;55.728;38.022;2023-12-07T09:29:51;9.23;;;6.47;;
75071;SDS011;63651;55.728;38.022;2023-12-07T09:34:52;8.43;;;5.45;;
75071;SDS011;63651;55.728;38.022;2023-12-07T09:39:53;8.68;;;5.50;;
75071;SDS011;63651;55.728;38.022;2023-12-07T09:44:54;11.90;;;6.47;;
75071;SDS011;63651;55.728;38.022;2023-12-07T09:49:56;11.65;;;6.38;;
75071;SDS011;63651;55.728;38.022;2023-12-07T09:54:58;10.38;;;5.85;;
75071;SDS011;63651;55.728;38.022;2023-12-07T10:00:02;10.02;;;5.82;;
75071;SDS011;63651;55.728;38.022;2023-12-07T10:05:05;9.88;;;5.72;;
75071;SDS011;63651;55.728;38.022;2023-12-07T10:10:07;10.23;;;6.47;;
75071;SDS011;63651;55.728;38.022;2023-12-07T10:15:12;9.27;;;6.43;;
75071;SDS011;63651;55.728;38.022;2023-12-07T10:20:15;7.90;;;5.32;;
75071;SDS011;63651;55.728;38.022;2023-12-07T10:25:20;9.88;;;5.15;;
75071;SDS011;63651;55.728;38.022;2023-12-07T10:30:22;8.98;;;5.15;;
75071;SDS011;63651;55.728;38.022;2023-12-07T10:35:26;8.43;;;5.57;;
75071;SDS011;63651;55.728;38.022;2023-12-07T10:40:27;7.85;;;5.30;;
75071;SDS011;63651;55.728;38.022;2023-12-07T10:45:29;8.30;;;5.72;;
75071;SDS011;63651;55.728;38.022;2023-12-07T10:50:32;7.72;;;4.97;;
75071;SDS011;63651;55.728;38.022;2023-12-07T10:55:46;7.47;;;4.47;;
75071;SDS011;63651;55.728;38.022;2023-12-07T11:00:52;6.88;;;4.93;;
75071;SDS011;63651;55.728;38.022;2023-12-07T11:05:53;7.05;;;5.13;;
75071;SDS011;63651;55.728;38.022;2023-12-07T11:16:33;6.47;;;3.80;;
75071;SDS011;63651;55.728;38.022;2023-12-07T11:21:37;6.72;;;4.13;;
75071;SDS011;63651;55.728;38.022;2023-12-07T11:26:38;6.25;;;4.47;;
75071;SDS011;63651;55.728;38.022;2023-12-07T11:31:43;5.70;;;4.05;;
75071;SDS011;63651;55.728;38.022;2023-12-07T11:36:45;7.10;;;4.30;;
75071;SDS011;63651;55.728;38.022;2023-12-07T11:41:49;5.90;;;3.70;;
75071;SDS011;63651;55.728;38.022;2023-12-07T11:46:54;6.65;;;4.40;;
75071;SDS011;63651;55.728;38.022;2023-12-07T11:51:55;8.07;;;4.40;;
75071;SDS011;63651;55.728;38.022;2023-12-07T11:56:56;5.93;;;4.32;;
75071;SDS011;63651;55.728;38.022;2023-12-07T12:02:01;6.13;;;4.40;;
75071;SDS011;63651;55.728;38.022;2023-12-07T12:07:03;6.65;;;4.20;;
75071;SDS011;63651;55.728;38.022;2023-12-07T12:12:04;5.68;;;4.07;;
75071;SDS011;63651;55.728;38.022;2023-12-07T12:17:06;6.97;;;3.97;;
75071;SDS011;63651;55.728;38.022;2023-12-07T12:22:07;6.15;;;3.88;;
75071;SDS011;63651;55.728;38.022;2023-12-07T12:27:08;6.60;;;4.32;;
75071;SDS011;63651;55.728;38.022;2023-12-07T12:32:09;5.70;;;4.10;;
75071;SDS011;63651;55.728;38.022;2023-12-07T12:37:10;6.75;;;3.50;;
75071;SDS011;63651;55.728;38.022;2023-12-07T12:42:12;7.88;;;4.50;;
75071;SDS011;63651;55.728;38.022;2023-12-07T12:47:13;6.90;;;3.72;;
75071;SDS011;63651;55.728;38.022;2023-12-07T12:52:15;6.60;;;4.03;;
75071;SDS011;63651;55.728;38.022;2023-12-07T12:57:19;6.68;;;3.58;;
75071;SDS011;63651;55.728;38.022;2023-12-07T13:02:20;6.20;;;4.22;;
75071;SDS011;63651;55.728;38.022;2023-12-07T13:07:21;5.97;;;3.67;;
75071;SDS011;63651;55.728;38.022;2023-12-07T13:12:25;7.07;;;3.95;;
75071;SDS011;63651;55.728;38.022;2023-12-07T13:17:28;5.70;;;3.67;;
75071;SDS011;63651;55.728;38.022;2023-12-07T13:22:30;4.70;;;3.03;;
75071;SDS011;63651;55.728;38.022;2023-12-07T13:27:32;6.00;;;2.85;;
75071;SDS011;63651;55.728;38.022;2023-12-07T13:32:34;5.65;;;3.08;;
75071;SDS011;63651;55.728;38.022;2023-12-07T13:37:37;5.05;;;3.10;;
75071;SDS011;63651;55.728;38.022;2023-12-07T13:42:38;5.35;;;2.97;;
75071;SDS011;63651;55.728;38.022;2023-12-07T13:47:40;6.85;;;3.50;;
75071;SDS011;63651;55.728;38.022;2023-12-07T13:52:43;5.25;;;3.08;;
75071;SDS011;63651;55.728;38.022;2023-12-07T13:57:44;9.27;;;3.80;;
75071;SDS011;63651;55.728;38.022;2023-12-07T14:02:46;4.93;;;2.80;;
75071;SDS011;63651;55.728;38.022;2023-12-07T14:07:47;5.10;;;3.00;;
75071;SDS011;63651;55.728;38.022;2023-12-07T14:12:48;5.97;;;2.88;;
75071;SDS011;63651;55.728;38.022;2023-12-07T14:17:48;4.75;;;2.97;;
75071;SDS011;63651;55.728;38.022;2023-12-07T14:22:49;4.47;;;2.72;;
75071;SDS011;63651;55.728;38.022;2023-12-07T14:27:50;4.43;;;2.50;;
75071;SDS011;63651;55.728;38.022;2023-12-07T14:32:51;3.88;;;2.55;;
75071;SDS011;63651;55.728;38.022;2023-12-07T14:37:54;3.58;;;2.67;;
75071;SDS011;63651;55.728;38.022;2023-12-07T14:42:55;4.40;;;2.70;;
75071;SDS011;63651;55.728;38.022;2023-12-07T14:47:55;3.70;;;2.28;;
75071;SDS011;63651;55.728;38.022;2023-12-07T14:52:56;6.43;;;3.03;;
75071;SDS011;63651;55.728;38.022;2023-12-07T14:57:57;3.78;;;2.67;;
75071;SDS011;63651;55.728;38.022;2023-12-07T15:02:58;6.38;;;2.97;;
75071;SDS011;63651;55.728;38.022;2023-12-07T15:07:59;6.40;;;2.83;;
75071;SDS011;63651;55.728;38.022;2023-12-07T15:13:00;7.68;;;3.03;;
75071;SDS011;63651;55.728;38.022;2023-12-07T15:18:00;5.72;;;2.88;;
75071;SDS011;63651;55.728;38.022;2023-12-07T15:23:04;5.65;;;3.13;;
75071;SDS011;63651;55.728;38.022;2023-12-07T15:28:05;6.25;;;2.65;;
75071;SDS011;63651;55.728;38.022;2023-12-07T15:33:06;4.80;;;2.75;;
75071;SDS011;63651;55.728;38.022;2023-12-07T15:38:07;3.47;;;2.67;;
75071;SDS011;63651;55.728;38.022;2023-12-07T15:43:08;4.90;;;3.00;;
75071;SDS011;63651;55.728;38.022;2023-12-07T15:48:09;4.80;;;3.25;;
75071;SDS011;63651;55.728;38.022;2023-12-07T15:53:10;3.65;;;2.60;;
75071;SDS011;63651;55.728;38.022;2023-12-07T15:58:11;4.45;;;3.22;;
75071;SDS011;63651;55.728;38.022;2023-12-07T16:03:11;4.88;;;3.28;;
75071;SDS011;63651;55.728;38.022;2023-12-07T16:08:12;18.48;;;2.95;;
75071;SDS011;63651;55.728;38.022;2023-12-07T16:13:13;4.07;;;2.22;;
75071;SDS011;63651;55.728;38.022;2023-12-07T16:18:13;4.10;;;2.72;;
75071;SDS011;63651;55.728;38.022;2023-12-07T16:23:14;3.55;;;2.63;;
75071;SDS011;63651;55.728;38.022;2023-12-07T16:28:15;4.65;;;2.55;;
75071;SDS011;63651;55.728;38.022;2023-12-07T16:33:15;3.35;;;2.50;;
75071;SDS011;63651;55.728;38.022;2023-12-07T16:38:19;5.18;;;2.63;;
75071;SDS011;63651;55.728;38.022;2023-12-07T16:43:20;5.88;;;3.55;;
75071;SDS011;63651;55.728;38.022;2023-12-07T16:48:20;3.67;;;2.17;;
75071;SDS011;63651;55.728;38.022;2023-12-07T16:53:21;3.10;;;2.33;;
75071;SDS011;63651;55.728;38.022;2023-12-07T16:58:23;2.58;;;1.90;;
75071;SDS011;63651;55.728;38.022;2023-12-07T17:03:23;2.97;;;2.15;;
75071;SDS011;63651;55.728;38.022;2023-12-07T17:08:26;3.67;;;1.83;;
75071;SDS011;63651;55.728;38.022;2023-12-07T17:13:27;2.72;;;2.05;;
75071;SDS011;63651;55.728;38.022;2023-12-07T17:18:28;4.10;;;2.33;;
75071;SDS011;63651;55.728;38.022;2023-12-07T17:23:28;2.97;;;2.28;;
75071;SDS011;63651;55.728;38.022;2023-12-07T17:28:29;2.53;;;1.83;;
75071;SDS011;63651;55.728;38.022;2023-12-07T17:33:30;2.53;;;1.70;;
75071;SDS011;63651;55.728;38.022;2023-12-07T17:38:31;2.83;;;2.00;;
75071;SDS011;63651;55.728;38.022;2023-12-07T17:43:31;2.20;;;1.63;;
75071;SDS011;63651;55.728;38.022;2023-12-07T17:48:32;3.58;;;2.20;;
75071;SDS011;63651;55.728;38.022;2023-12-07T17:53:33;7.60;;;4.20;;
75071;SDS011;63651;55.728;38.022;2023-12-07T17:58:34;6.03;;;3.58;;
75071;SDS011;63651;55.728;38.022;2023-12-07T18:03:34;5.28;;;3.55;;
75071;SDS011;63651;55.728;38.022;2023-12-07T18:08:35;5.10;;;3.25;;
75071;SDS011;63651;55.728;38.022;2023-12-07T18:13:36;5.40;;;3.05;;
75071;SDS011;63651;55.728;38.022;2023-12-07T18:18:37;6.53;;;3.55;;
75071;SDS011;63651;55.728;38.022;2023-12-07T18:23:39;5.65;;;3.75;;
75071;SDS011;63651;55.728;38.022;2023-12-07T18:28:40;5.70;;;3.38;;
75071;SDS011;63651;55.728;38.022;2023-12-07T18:33:42;4.75;;;3.30;;
75071;SDS011;63651;55.728;38.022;2023-12-07T18:38:43;4.68;;;3.10;;
75071;SDS011;63651;55.728;38.022;2023-12-07T18:43:44;4.72;;;3.22;;
75071;SDS011;63651;55.728;38.022;2023-12-07T18:48:45;5.10;;;3.38;;
75071;SDS011;63651;55.728;38.022;2023-12-07T18:53:46;4.78;;;3.28;;
75071;SDS011;63651;55.728;38.022;2023-12-07T18:58:47;5.47;;;3.58;;
75071;SDS011;63651;55.728;38.022;2023-12-07T19:03:48;5.18;;;3.00;;
75071;SDS011;63651;55.728;38.022;2023-12-07T19:08:49;5.25;;;2.88;;
75071;SDS011;63651;55.728;38.022;2023-12-07T19:13:50;5.82;;;3.10;;
75071;SDS011;63651;55.728;38.022;2023-12-07T19:18:51;4.95;;;3.13;;
75071;SDS011;63651;55.728;38.022;2023-12-07T19:23:52;4.75;;;3.10;;
75071;SDS011;63651;55.728;38.022;2023-12-07T19:28:56;4.72;;;3.38;;
75071;SDS011;63651;55.728;38.022;2023-12-07T19:33:59;5.10;;;3.17;;
75071;SDS011;63651;55.728;38.022;2023-12-07T19:39:00;4.97;;;3.10;;
75071;SDS011;63651;55.728;38.022;2023-12-07T19:44:01;6.88;;;2.95;;
75071;SDS011;63651;55.728;38.022;2023-12-07T19:49:02;4.57;;;2.90;;
75071;SDS011;63651;55.728;38.022;2023-12-07T19:54:03;6.47;;;3.60;;
75071;SDS011;63651;55.728;38.022;2023-12-07T19:59:04;5.63;;;3.38;;
75071;SDS011;63651;55.728;38.022;2023-12-07T20:04:05;4.03;;;2.72;;
75071;SDS011;63651;55.728;38.022;2023-12-07T20:09:07;4.95;;;3.08;;
75071;SDS011;63651;55.728;38.022;2023-12-07T20:14:14;6.07;;;3.63;;
75071;SDS011;63651;55.728;38.022;2023-12-07T20:19:21;4.28;;;2.88;;
75071;SDS011;63651;55.728;38.022;2023-12-07T20:24:23;4.40;;;3.03;;
75071;SDS011;63651;55.728;38.022;2023-12-07T20:29:24;5.20;;;3.10;;
75071;SDS011;63651;55.728;38.022;2023-12-07T20:34:26;5.07;;;2.90;;
75071;SDS011;63651;55.728;38.022;2023-12-07T20:39:31;5.20;;;2.92;;
75071;SDS011;63651;55.728;38.022;2023-12-07T20:44:32;4.70;;;3.28;;
75071;SDS011;63651;55.728;38.022;2023-12-07T20:49:33;5.20;;;3.13;;
75071;SDS011;63651;55.728;38.022;2023-12-07T20:54:34;4.15;;;2.80;;
75071;SDS011;63651;55.728;38.022;2023-12-07T20:59:35;5.90;;;3.35;;
75071;SDS011;63651;55.728;38.022;2023-12-07T21:04:39;7.60;;;4.03;;
75071;SDS011;63651;55.728;38.022;2023-12-07T21:09:40;8.95;;;3.97;;
75071;SDS011;63651;55.728;38.022;2023-12-07T21:14:41;6.00;;;3.65;;
75071;SDS011;63651;55.728;38.022;2023-12-07T21:19:43;6.45;;;3.70;;
75071;SDS011;63651;55.728;38.022;2023-12-07T21:24:44;5.45;;;3.38;;
75071;SDS011;63651;55.728;38.022;2023-12-07T21:29:45;4.65;;;3.13;;
75071;SDS011;63651;55.728;38.022;2023-12-07T21:34:46;5.18;;;3.13;;
75071;SDS011;63651;55.728;38.022;2023-12-07T21:39:48;5.35;;;3.22;;
75071;SDS011;63651;55.728;38.022;2023-12-07T21:44:50;5.72;;;3.28;;
75071;SDS011;63651;55.728;38.022;2023-12-07T21:49:51;4.90;;;3.35;;
75071;SDS011;63651;55.728;38.022;2023-12-07T21:54:53;5.03;;;3.15;;
75071;SDS011;63651;55.728;38.022;2023-12-07T21:59:57;6.55;;;3.63;;
75071;SDS011;63651;55.728;38.022;2023-12-07T22:04:58;6.72;;;3.78;;
75071;SDS011;63651;55.728;38.022;2023-12-07T22:10:00;4.95;;;3.25;;
75071;SDS011;63651;55.728;38.022;2023-12-07T22:15:01;6.53;;;3.45;;
75071;SDS011;63651;55.728;38.022;2023-12-07T22:20:02;5.63;;;3.30;;
75071;SDS011;63651;55.728;38.022;2023-12-07T22:25:04;8.40;;;4.28;;
75071;SDS011;63651;55.728;38.022;2023-12-07T22:30:06;10.25;;;5.38;;
75071;SDS011;63651;55.728;38.022;2023-12-07T22:35:07;7.32;;;4.43;;
75071;SDS011;63651;55.728;38.022;2023-12-07T22:40:08;8.43;;;5.03;;
75071;SDS011;63651;55.728;38.022;2023-12-07T22:45:10;7.55;;;5.07;;
75071;SDS011;63651;55.728;38.022;2023-12-07T22:50:11;7.53;;;4.88;;
75071;SDS011;63651;55.728;38.022;2023-12-07T22:55:12;7.80;;;4.72;;
75071;SDS011;63651;55.728;38.022;2023-12-07T23:00:13;8.38;;;5.18;;
75071;SDS011;63651;55.728;38.022;2023-12-07T23:52:18;5.50;;;3.63;;
75071;SDS011;63651;55.728;38.022;2023-12-07T23:57:19;5.28;;;3.30;;
